Terminal Aerodrome Forecast
Issued by NWS Twin Cities, MN

Home | Current Version | Previous Version | Text Only | Print | Product List | Glossary On
Versions: 1 2 3 4 5 6 7 8 9 10 11 12 13 14 15 16 17 18 19 20
000
FTUS43 KMPX 020500
TAFSTC
TAF
KSTC 020538Z 0206/0306 VRB03KT 3SM BR OVC004
     FM020800 00000KT 1/2SM FG VV002
     FM021400 30005KT 2SM BR SCT004 OVC007
     FM021700 28005KT 6SM -RA BR BKN014 OVC025
     FM030000 28005KT P6SM SCT020 BKN100=

USA.gov is the U.S. government's official web portal to all federal, state and local government web resources and services.